createdAt,value
2022-09-03T00:00:42.991Z,53.25
2022-09-03T00:01:43.008Z,53.45
2022-09-03T00:02:43.001Z,53.45
2022-09-03T00:03:42.960Z,53.34
2022-09-03T00:04:42.935Z,53.34
2022-09-03T00:05:42.955Z,53.45
2022-09-03T00:06:42.912Z,53.65
2022-09-03T00:07:42.901Z,53.65
2022-09-03T00:08:42.904Z,53.45
2022-09-03T00:09:42.885Z,53.45
2022-09-03T00:10:42.876Z,53.55
2022-09-03T00:11:42.862Z,53.45
2022-09-03T00:12:42.845Z,53.25
2022-09-03T00:13:42.841Z,53.25
2022-09-03T00:14:42.824Z,53.25
2022-09-03T00:15:42.845Z,53.25
2022-09-03T00:16:42.794Z,53.25
2022-09-03T00:17:42.778Z,53.25
2022-09-03T00:18:42.775Z,53.14
2022-09-03T00:19:42.776Z,53.14
2022-09-03T00:20:42.762Z,53.25
2022-09-03T00:21:43.687Z,53.25
2022-09-03T00:22:42.736Z,53.34
2022-09-03T00:23:42.706Z,53.34
2022-09-03T00:24:42.707Z,53.34
2022-09-03T00:25:42.693Z,53.34
2022-09-03T00:26:42.678Z,53.45
2022-09-03T00:27:42.667Z,53.34
2022-09-03T00:28:42.697Z,53.45
2022-09-03T00:29:42.643Z,53.85
2022-09-03T00:30:42.632Z,53.75
2022-09-03T00:31:42.626Z,53.65
2022-09-03T00:32:42.616Z,53.78
2022-09-03T00:33:42.631Z,53.78
2022-09-03T00:34:42.595Z,53.88
2022-09-03T00:35:42.580Z,53.88
2022-09-03T00:36:42.634Z,53.88
2022-09-03T00:37:42.549Z,53.88
2022-09-03T00:38:42.561Z,53.88
2022-09-03T00:39:43.539Z,53.98
2022-09-03T00:40:42.523Z,53.98
2022-09-03T00:41:42.525Z,53.98
2022-09-03T00:42:42.505Z,54.08
2022-09-03T00:43:42.492Z,54.08
2022-09-03T00:44:42.496Z,54.18
2022-09-03T00:45:42.463Z,54.38
2022-09-03T00:46:42.520Z,54.38
2022-09-03T00:47:42.435Z,54.49
2022-09-03T00:48:42.441Z,54.58
2022-09-03T00:49:42.406Z,54.79
2022-09-03T00:50:42.423Z,54.69
2022-09-03T00:51:42.387Z,54.99
2022-09-03T00:52:42.402Z,55.11
2022-09-03T00:53:42.377Z,55.22
2022-09-03T00:54:42.368Z,55.32
2022-09-03T00:55:42.345Z,55.52
2022-09-03T00:56:42.328Z,55.62
2022-09-03T00:57:42.315Z,55.73
2022-09-03T00:58:42.330Z,55.82
2022-09-03T00:59:42.308Z,56.33
2022-09-03T01:00:49.824Z,56.26
2022-09-03T01:01:44.387Z,56.36
2022-09-03T01:02:42.811Z,56.26
2022-09-03T01:03:42.266Z,56.05
2022-09-03T01:04:42.275Z,56.15
2022-09-03T01:05:42.246Z,56.26
2022-09-03T01:06:42.229Z,56.46
2022-09-03T01:07:42.210Z,56.46
2022-09-03T01:08:42.247Z,56.66
2022-09-03T01:09:42.216Z,56.59
2022-09-03T01:10:42.168Z,56.69
2022-09-03T01:11:42.212Z,56.79
2022-09-03T01:12:42.148Z,56.69
2022-09-03T01:13:42.148Z,56.89
2022-09-03T01:14:42.140Z,57.29
2022-09-03T01:15:42.222Z,57.29
2022-09-03T01:16:42.148Z,57.40
2022-09-03T01:17:42.094Z,57.60
2022-09-03T01:18:42.087Z,57.40
2022-09-03T01:19:42.085Z,57.70
2022-09-03T01:20:42.090Z,58.00
2022-09-03T01:21:42.078Z,58.03
2022-09-03T01:22:42.083Z,58.03
2022-09-03T01:23:42.990Z,57.93
2022-09-03T01:24:42.033Z,58.23
2022-09-03T01:25:42.022Z,58.23
2022-09-03T01:26:42.006Z,58.44
2022-09-03T01:27:41.997Z,58.34
2022-09-03T01:28:42.043Z,58.54
2022-09-03T01:29:41.963Z,58.56
2022-09-03T01:30:42.036Z,58.76
2022-09-03T01:31:41.935Z,58.87
2022-09-03T01:32:41.950Z,58.87
2022-09-03T01:33:41.914Z,59.17
2022-09-03T01:34:41.910Z,59.27
2022-09-03T01:35:41.946Z,59.38
2022-09-03T01:36:41.909Z,59.48
2022-09-03T01:37:41.867Z,59.48
2022-09-03T01:38:41.868Z,59.70
2022-09-03T01:39:41.877Z,59.81
2022-09-03T01:40:41.858Z,60.01
2022-09-03T01:41:41.826Z,60.01
2022-09-03T01:42:41.821Z,60.21
2022-09-03T01:43:45.213Z,60.42
2022-09-03T01:44:41.789Z,60.31
2022-09-03T01:45:41.853Z,60.42
2022-09-03T01:46:42.873Z,60.52
2022-09-03T01:47:41.754Z,60.62
2022-09-03T01:48:41.759Z,60.75
2022-09-03T01:49:41.743Z,60.85
2022-09-03T01:50:41.765Z,60.95
2022-09-03T01:51:41.725Z,60.95
2022-09-03T01:52:41.713Z,60.85
2022-09-03T01:53:41.702Z,60.95
2022-09-03T01:54:41.696Z,60.85
2022-09-03T01:55:41.662Z,61.05
2022-09-03T01:56:41.675Z,61.18
2022-09-03T01:57:42.026Z,61.29
2022-09-03T01:58:41.632Z,61.29
2022-09-03T01:59:41.639Z,61.49
2022-09-03T02:00:41.615Z,61.49
2022-09-03T02:01:42.578Z,61.39
2022-09-03T02:02:41.825Z,61.49
2022-09-03T02:03:41.565Z,61.29
2022-09-03T02:04:41.565Z,61.39
2022-09-03T02:05:41.561Z,61.49
2022-09-03T02:06:42.508Z,61.72
2022-09-03T02:07:41.538Z,61.82
2022-09-03T02:08:41.519Z,61.93
2022-09-03T02:09:41.517Z,62.02
2022-09-03T02:10:41.531Z,62.23
2022-09-03T02:11:41.483Z,62.33
2022-09-03T02:12:41.490Z,62.56
2022-09-03T02:13:41.477Z,62.66
2022-09-03T02:14:41.461Z,62.76
2022-09-03T02:15:41.517Z,62.87
2022-09-03T02:16:41.438Z,62.97
2022-09-03T02:17:41.430Z,63.20
2022-09-03T02:18:41.436Z,63.51
2022-09-03T02:19:41.402Z,63.71
2022-09-03T02:20:41.403Z,63.81
2022-09-03T02:21:41.379Z,63.81
2022-09-03T02:22:41.391Z,63.91
2022-09-03T02:23:41.362Z,63.91
2022-09-03T02:24:41.346Z,63.91
2022-09-03T02:25:41.355Z,63.81
2022-09-03T02:26:41.342Z,63.81
2022-09-03T02:27:41.306Z,63.81
2022-09-03T02:28:41.314Z,63.91
2022-09-03T02:29:41.289Z,63.91
2022-09-03T02:30:41.402Z,64.01
2022-09-03T02:31:41.289Z,64.01
2022-09-03T02:32:41.247Z,64.04
2022-09-03T02:33:41.271Z,64.12
2022-09-03T02:34:41.227Z,64.15
2022-09-03T02:35:41.239Z,64.15
2022-09-03T02:36:41.206Z,64.25
2022-09-03T02:37:41.209Z,64.25
2022-09-03T02:38:41.178Z,64.25
2022-09-03T02:39:41.229Z,64.35
2022-09-03T02:40:41.147Z,64.55
2022-09-03T02:41:41.164Z,64.76
2022-09-03T02:42:41.136Z,64.76
2022-09-03T02:43:41.131Z,64.89
2022-09-03T02:44:41.110Z,64.99
2022-09-03T02:45:41.109Z,64.99
2022-09-03T02:46:41.109Z,65.09
2022-09-03T02:47:41.083Z,65.09
2022-09-03T02:48:41.091Z,65.19
2022-09-03T02:49:41.061Z,64.96
2022-09-03T02:50:41.061Z,64.86
2022-09-03T02:51:41.062Z,64.86
2022-09-03T02:52:41.023Z,64.76
2022-09-03T02:53:41.035Z,64.55
2022-09-03T02:54:41.054Z,64.55
2022-09-03T02:55:41.004Z,64.35
2022-09-03T02:56:40.997Z,64.25
2022-09-03T02:57:40.969Z,64.42
2022-09-03T02:58:40.975Z,64.35
2022-09-03T02:59:44.778Z,64.32
2022-09-03T03:00:40.955Z,64.32
2022-09-03T03:01:41.980Z,64.42
2022-09-03T03:02:41.027Z,64.35
2022-09-03T03:03:40.945Z,64.42
2022-09-03T03:04:40.920Z,64.45
2022-09-03T03:05:40.895Z,64.35
2022-09-03T03:06:40.877Z,64.55
2022-09-03T03:07:40.897Z,64.45
2022-09-03T03:08:40.911Z,64.55
2022-09-03T03:09:40.849Z,64.35
2022-09-03T03:10:40.904Z,64.35
2022-09-03T03:11:40.839Z,64.25
2022-09-03T03:12:40.860Z,64.25
2022-09-03T03:13:40.801Z,64.42
2022-09-03T03:14:40.786Z,64.35
2022-09-03T03:15:40.798Z,64.22
2022-09-03T03:16:40.839Z,64.04
2022-09-03T03:17:40.791Z,63.91
2022-09-03T03:18:40.746Z,63.91
2022-09-03T03:19:40.758Z,64.01
2022-09-03T03:20:40.735Z,64.22
2022-09-03T03:21:40.715Z,64.01
2022-09-03T03:22:40.703Z,63.81
2022-09-03T03:23:40.715Z,63.71
2022-09-03T03:24:40.700Z,63.71
2022-09-03T03:25:40.684Z,63.81
2022-09-03T03:26:40.657Z,64.01
2022-09-03T03:27:40.667Z,64.15
2022-09-03T03:28:40.647Z,64.04
2022-09-03T03:29:40.630Z,64.04
2022-09-03T03:30:44.403Z,63.94
2022-09-03T03:31:40.607Z,63.94
2022-09-03T03:32:40.600Z,64.04
2022-09-03T03:33:40.607Z,64.15
2022-09-03T03:34:40.577Z,64.25
2022-09-03T03:35:40.558Z,64.25
2022-09-03T03:36:40.564Z,64.35
2022-09-03T03:37:40.553Z,64.25
2022-09-03T03:38:40.512Z,64.25
2022-09-03T03:39:40.568Z,64.25
2022-09-03T03:40:40.507Z,64.45
2022-09-03T03:41:40.520Z,64.35
2022-09-03T03:42:40.474Z,64.35
2022-09-03T03:43:40.470Z,64.45
2022-09-03T03:44:40.476Z,64.45
2022-09-03T03:45:40.515Z,64.55
2022-09-03T03:46:40.475Z,64.35
2022-09-03T03:47:40.448Z,64.45
2022-09-03T03:48:40.417Z,64.55
2022-09-03T03:49:40.397Z,64.55
2022-09-03T03:50:40.400Z,64.45
2022-09-03T03:51:41.369Z,64.55
2022-09-03T03:52:40.386Z,64.45
2022-09-03T03:53:41.050Z,64.45
2022-09-03T03:54:40.358Z,64.76
2022-09-03T03:55:40.326Z,64.86
2022-09-03T03:56:40.318Z,65.06
2022-09-03T03:57:40.303Z,65.06
2022-09-03T03:58:40.319Z,65.06
2022-09-03T03:59:40.279Z,65.16
2022-09-03T04:00:40.262Z,65.36
2022-09-03T04:01:40.384Z,65.60
2022-09-03T04:02:40.360Z,65.50
2022-09-03T04:03:44.276Z,65.60
2022-09-03T04:04:40.274Z,65.39
2022-09-03T04:05:46.149Z,65.50
2022-09-03T04:06:41.228Z,65.39
2022-09-03T04:07:40.190Z,65.50
2022-09-03T04:08:40.208Z,65.70
2022-09-03T04:09:40.186Z,65.80
2022-09-03T04:10:40.152Z,65.80
2022-09-03T04:11:40.215Z,65.70
2022-09-03T04:12:40.140Z,65.70
2022-09-03T04:13:40.146Z,65.70
2022-09-03T04:14:40.158Z,65.70
2022-09-03T04:15:40.137Z,65.70
2022-09-03T04:16:40.150Z,65.91
2022-09-03T04:17:40.091Z,65.70
2022-09-03T04:18:40.117Z,65.70
2022-09-03T04:19:40.072Z,66.00
2022-09-03T04:20:40.056Z,66.21
2022-09-03T04:21:40.026Z,66.11
2022-09-03T04:22:43.982Z,66.00
2022-09-03T04:23:40.034Z,66.21
2022-09-03T04:24:39.998Z,66.31
2022-09-03T04:25:40.014Z,66.61
2022-09-03T04:26:39.984Z,66.55
2022-09-03T04:27:40.048Z,66.65
2022-09-03T04:28:39.961Z,66.75
2022-09-03T04:29:39.995Z,66.75
2022-09-03T04:30:39.970Z,66.96
2022-09-03T04:31:40.087Z,67.05
2022-09-03T04:32:39.915Z,67.46
2022-09-03T04:33:39.913Z,67.49
2022-09-03T04:34:39.917Z,67.60
2022-09-03T04:35:39.921Z,67.60
2022-09-03T04:36:39.848Z,67.69
2022-09-03T04:37:39.844Z,67.60
2022-09-03T04:38:39.840Z,67.80
2022-09-03T04:39:39.954Z,67.80
2022-09-03T04:40:39.809Z,67.80
2022-09-03T04:41:39.815Z,67.90
2022-09-03T04:42:39.796Z,67.90
2022-09-03T04:43:39.771Z,68.01
2022-09-03T04:44:39.788Z,67.90
2022-09-03T04:45:39.815Z,67.80
2022-09-03T04:46:39.733Z,67.69
2022-09-03T04:47:39.775Z,67.90
2022-09-03T04:48:39.714Z,67.90
2022-09-03T04:49:39.721Z,68.21
2022-09-03T04:50:39.737Z,68.21
2022-09-03T04:51:39.684Z,68.31
2022-09-03T04:52:39.683Z,68.62
2022-09-03T04:53:39.654Z,68.21
2022-09-03T04:54:39.648Z,68.21
2022-09-03T04:55:39.634Z,68.31
2022-09-03T04:56:39.634Z,68.51
2022-09-03T04:57:39.636Z,68.62
2022-09-03T04:58:39.599Z,68.65
2022-09-03T04:59:39.593Z,68.65
2022-09-03T05:00:39.716Z,68.54
2022-09-03T05:01:39.642Z,68.62
2022-09-03T05:02:39.668Z,68.51
2022-09-03T05:03:39.553Z,68.71
2022-09-03T05:04:39.546Z,68.65
2022-09-03T05:05:39.535Z,68.75
2022-09-03T05:06:39.546Z,68.95
2022-09-03T05:07:39.499Z,69.36
2022-09-03T05:08:39.508Z,69.15
2022-09-03T05:09:39.492Z,69.06
2022-09-03T05:10:39.492Z,68.82
2022-09-03T05:11:39.459Z,68.62
2022-09-03T05:12:39.459Z,68.51
2022-09-03T05:13:39.452Z,68.31
2022-09-03T05:14:39.437Z,68.31
2022-09-03T05:15:39.455Z,68.31
2022-09-03T05:16:39.508Z,68.21
2022-09-03T05:17:39.387Z,68.21
2022-09-03T05:18:39.374Z,68.21
2022-09-03T05:19:39.367Z,68.41
2022-09-03T05:20:39.366Z,68.31
2022-09-03T05:21:39.365Z,68.10
2022-09-03T05:22:39.352Z,68.21
2022-09-03T05:23:39.512Z,68.31
2022-09-03T05:24:39.320Z,68.21
2022-09-03T05:25:39.306Z,68.41
2022-09-03T05:26:39.311Z,68.51
2022-09-03T05:27:39.291Z,68.41
2022-09-03T05:28:39.268Z,68.27
2022-09-03T05:29:39.263Z,68.27
2022-09-03T05:30:40.205Z,68.38
2022-09-03T05:31:39.543Z,68.48
2022-09-03T05:32:39.217Z,68.38
2022-09-03T05:33:39.223Z,68.48
2022-09-03T05:34:39.196Z,68.48
2022-09-03T05:35:39.226Z,67.94
2022-09-03T05:36:39.176Z,67.94
2022-09-03T05:37:39.166Z,67.53
2022-09-03T05:38:39.142Z,67.74
2022-09-03T05:39:39.192Z,67.83
2022-09-03T05:40:39.121Z,67.94
2022-09-03T05:41:39.149Z,67.83
2022-09-03T05:42:40.053Z,67.71
2022-09-03T05:43:39.092Z,67.10
2022-09-03T05:44:39.101Z,66.99
2022-09-03T05:45:39.114Z,66.89
2022-09-03T05:46:39.081Z,66.79
2022-09-03T05:47:39.058Z,66.79
2022-09-03T05:48:39.033Z,66.69
2022-09-03T05:49:39.034Z,66.58
2022-09-03T05:50:39.016Z,66.96
2022-09-03T05:51:39.004Z,66.96
2022-09-03T05:52:39.017Z,66.86
2022-09-03T05:53:38.987Z,66.76
2022-09-03T05:54:38.954Z,66.66
2022-09-03T05:55:38.973Z,66.66
2022-09-03T05:56:38.935Z,66.86
2022-09-03T05:57:38.953Z,66.83
2022-09-03T05:58:38.934Z,66.32
2022-09-03T05:59:38.915Z,66.52
2022-09-03T06:00:38.905Z,66.32
2022-09-03T06:01:38.963Z,66.32
2022-09-03T06:02:39.021Z,66.29
2022-09-03T06:03:39.005Z,66.29
2022-09-03T06:04:38.847Z,66.08
2022-09-03T06:05:38.862Z,65.99
2022-09-03T06:06:38.852Z,65.88
2022-09-03T06:07:38.820Z,65.85
2022-09-03T06:08:38.812Z,65.85
2022-09-03T06:09:38.820Z,65.75
2022-09-03T06:10:41.032Z,65.55
2022-09-03T06:11:38.847Z,65.34
2022-09-03T06:12:39.723Z,65.75
2022-09-03T06:13:38.759Z,65.65
2022-09-03T06:14:38.759Z,65.24
2022-09-03T06:15:38.735Z,65.45
2022-09-03T06:16:38.781Z,65.45
2022-09-03T06:17:38.723Z,65.34
2022-09-03T06:18:38.692Z,65.14
2022-09-03T06:19:38.691Z,65.65
2022-09-03T06:20:38.691Z,65.85
2022-09-03T06:21:38.696Z,65.65
2022-09-03T06:22:38.659Z,65.31
2022-09-03T06:23:38.636Z,64.91
2022-09-03T06:24:38.629Z,64.91
2022-09-03T06:25:38.621Z,64.91
2022-09-03T06:26:38.617Z,64.91
2022-09-03T06:27:38.592Z,64.67
2022-09-03T06:28:38.577Z,64.58
2022-09-03T06:29:38.581Z,64.78
2022-09-03T06:30:38.548Z,64.67
2022-09-03T06:31:38.606Z,64.37
2022-09-03T06:32:38.527Z,64.67
2022-09-03T06:33:38.537Z,64.67
2022-09-03T06:34:38.509Z,65.28
2022-09-03T06:35:42.729Z,65.79
2022-09-03T06:36:38.496Z,64.88
2022-09-03T06:37:38.489Z,64.75
2022-09-03T06:38:38.465Z,64.64
2022-09-03T06:39:39.481Z,64.14
2022-09-03T06:40:38.455Z,64.64
2022-09-03T06:41:38.432Z,64.51
2022-09-03T06:42:39.081Z,64.21
2022-09-03T06:43:38.420Z,64.31
2022-09-03T06:44:38.411Z,63.78
2022-09-03T06:45:38.414Z,63.27
2022-09-03T06:46:38.371Z,62.76
2022-09-03T06:47:38.376Z,62.63
2022-09-03T06:48:38.352Z,62.84
2022-09-03T06:49:39.302Z,62.60
2022-09-03T06:50:38.363Z,62.30
2022-09-03T06:51:38.340Z,61.79
2022-09-03T06:52:38.310Z,61.49
2022-09-03T06:53:38.308Z,61.76
2022-09-03T06:54:38.307Z,60.96
2022-09-03T06:55:38.292Z,60.55
2022-09-03T06:56:40.623Z,60.42
2022-09-03T06:57:38.254Z,59.81
2022-09-03T06:58:38.241Z,59.71
2022-09-03T06:59:38.310Z,59.41
2022-09-03T07:00:38.372Z,59.51
2022-09-03T07:01:38.453Z,59.18
2022-09-03T07:02:40.628Z,59.08
2022-09-03T07:03:39.187Z,58.78
2022-09-03T07:04:38.174Z,58.67
2022-09-03T07:05:38.179Z,58.78
2022-09-03T07:06:38.155Z,58.34
2022-09-03T07:07:38.152Z,58.45
2022-09-03T07:08:38.137Z,58.54
2022-09-03T07:09:38.151Z,58.65
2022-09-03T07:10:38.108Z,58.04
2022-09-03T07:11:38.118Z,57.94
2022-09-03T07:12:38.081Z,58.22
2022-09-03T07:13:38.081Z,58.12
2022-09-03T07:14:38.084Z,57.81
2022-09-03T07:15:38.056Z,57.91
2022-09-03T07:16:38.118Z,57.41
2022-09-03T07:17:38.036Z,57.10
2022-09-03T07:18:38.017Z,57.21
2022-09-03T07:19:38.045Z,57.10
2022-09-03T07:20:38.018Z,57.08
2022-09-03T07:21:38.023Z,57.08
2022-09-03T07:22:38.024Z,57.18
2022-09-03T07:23:38.012Z,57.38
2022-09-03T07:24:38.003Z,56.37
2022-09-03T07:25:37.982Z,56.88
2022-09-03T07:26:37.929Z,56.68
2022-09-03T07:27:37.931Z,56.24
2022-09-03T07:28:37.972Z,56.24
2022-09-03T07:29:37.901Z,56.17
2022-09-03T07:30:37.879Z,55.87
2022-09-03T07:31:38.024Z,56.37
2022-09-03T07:32:37.873Z,56.45
2022-09-03T07:33:37.881Z,55.94
2022-09-03T07:34:37.859Z,56.15
2022-09-03T07:35:37.837Z,56.45
2022-09-03T07:36:37.811Z,56.24
2022-09-03T07:37:37.833Z,55.74
2022-09-03T07:38:37.803Z,55.54
2022-09-03T07:39:37.861Z,56.02
2022-09-03T07:40:37.772Z,55.71
2022-09-03T07:41:38.546Z,55.51
2022-09-03T07:42:37.773Z,55.31
2022-09-03T07:43:37.748Z,54.71
2022-09-03T07:44:38.554Z,55.21
2022-09-03T07:45:38.529Z,55.51
2022-09-03T07:46:37.897Z,55.51
2022-09-03T07:47:37.708Z,54.88
2022-09-03T07:48:37.793Z,54.99
2022-09-03T07:49:38.605Z,54.88
2022-09-03T07:50:37.665Z,54.79
2022-09-03T07:51:37.652Z,55.49
2022-09-03T07:52:37.644Z,55.19
2022-09-03T07:53:37.629Z,55.06
2022-09-03T07:54:38.604Z,54.55
2022-09-03T07:55:37.611Z,54.55
2022-09-03T07:56:37.613Z,54.66
2022-09-03T07:57:37.600Z,54.75
2022-09-03T07:58:37.594Z,54.83
2022-09-03T07:59:37.549Z,54.53
2022-09-03T08:00:37.586Z,54.23
2022-09-03T08:01:38.362Z,53.83
2022-09-03T08:02:37.534Z,54.03
2022-09-03T08:03:37.561Z,53.90
2022-09-03T08:04:37.506Z,54.50
2022-09-03T08:05:37.495Z,54.40
2022-09-03T08:06:37.492Z,53.70
2022-09-03T08:07:37.504Z,53.90
2022-09-03T08:08:37.466Z,53.90
2022-09-03T08:09:38.424Z,53.67
2022-09-03T08:10:37.450Z,53.97
2022-09-03T08:11:37.437Z,54.17
2022-09-03T08:12:37.433Z,53.37
2022-09-03T08:13:37.433Z,52.26
2022-09-03T08:14:37.419Z,52.04
2022-09-03T08:15:37.371Z,52.44
2022-09-03T08:16:37.438Z,52.55
2022-09-03T08:17:37.389Z,52.74
2022-09-03T08:18:37.375Z,52.55
2022-09-03T08:19:37.341Z,52.04
2022-09-03T08:20:37.320Z,51.92
2022-09-03T08:21:37.313Z,51.92
2022-09-03T08:22:37.341Z,51.92
2022-09-03T08:23:37.292Z,51.81
2022-09-03T08:24:37.310Z,52.32
2022-09-03T08:25:37.270Z,51.99
2022-09-03T08:26:37.284Z,51.69
2022-09-03T08:27:37.248Z,51.79
2022-09-03T08:28:37.225Z,52.19
2022-09-03T08:29:37.252Z,52.09
2022-09-03T08:30:37.229Z,51.76
2022-09-03T08:31:37.254Z,50.56
2022-09-03T08:32:37.197Z,50.36
2022-09-03T08:33:37.181Z,50.66
2022-09-03T08:34:37.179Z,50.68
2022-09-03T08:35:37.157Z,51.29
2022-09-03T08:36:37.147Z,50.99
2022-09-03T08:37:37.151Z,51.17
2022-09-03T08:38:37.108Z,50.76
2022-09-03T08:39:37.190Z,50.36
2022-09-03T08:40:37.116Z,51.06
2022-09-03T08:41:37.076Z,51.06
2022-09-03T08:42:37.090Z,51.37
2022-09-03T08:43:37.060Z,51.04
2022-09-03T08:44:37.043Z,50.04
2022-09-03T08:45:37.041Z,50.54
2022-09-03T08:46:37.130Z,50.34
2022-09-03T08:47:37.023Z,50.04
2022-09-03T08:48:37.194Z,50.44
2022-09-03T08:49:37.046Z,50.63
2022-09-03T08:50:36.981Z,50.63
2022-09-03T08:51:36.974Z,50.04
2022-09-03T08:52:37.012Z,50.13
2022-09-03T08:53:36.964Z,50.34
2022-09-03T08:54:38.906Z,49.84
2022-09-03T08:55:36.947Z,50.24
2022-09-03T08:56:36.915Z,50.34
2022-09-03T08:57:36.911Z,50.74
2022-09-03T08:58:36.900Z,50.13
2022-09-03T08:59:36.905Z,50.24
2022-09-03T09:00:36.867Z,49.74
2022-09-03T09:01:37.107Z,50.24
2022-09-03T09:02:36.946Z,50.13
2022-09-03T09:03:36.842Z,49.81
2022-09-03T09:04:36.831Z,49.51
2022-09-03T09:05:36.814Z,48.91
2022-09-03T09:06:36.809Z,49.81
2022-09-03T09:07:36.790Z,49.81
2022-09-03T09:08:36.804Z,49.81
2022-09-03T09:09:36.765Z,49.31
2022-09-03T09:10:36.778Z,49.91
2022-09-03T09:11:36.750Z,50.31
2022-09-03T09:12:42.676Z,49.89
2022-09-03T09:13:37.712Z,49.69
2022-09-03T09:14:36.746Z,49.79
2022-09-03T09:15:36.784Z,48.99
2022-09-03T09:16:36.691Z,49.19
2022-09-03T09:17:36.673Z,48.79
2022-09-03T09:18:36.678Z,49.19
2022-09-03T09:19:36.647Z,49.66
2022-09-03T09:20:36.666Z,48.76
2022-09-03T09:21:36.622Z,48.96
2022-09-03T09:22:36.615Z,48.96
2022-09-03T09:23:36.611Z,48.76
2022-09-03T09:24:36.599Z,48.57
2022-09-03T09:25:36.616Z,48.66
2022-09-03T09:26:36.573Z,49.07
2022-09-03T09:27:36.552Z,48.94
2022-09-03T09:28:36.563Z,48.44
2022-09-03T09:29:36.565Z,48.24
2022-09-03T09:30:36.538Z,48.46
2022-09-03T09:31:36.607Z,48.46
2022-09-03T09:32:36.508Z,49.14
2022-09-03T09:33:36.482Z,49.24
2022-09-03T09:34:36.519Z,48.54
2022-09-03T09:35:36.483Z,48.54
2022-09-03T09:36:36.481Z,48.64
2022-09-03T09:37:36.445Z,48.96
2022-09-03T09:38:36.436Z,49.24
2022-09-03T09:39:37.429Z,49.04
2022-09-03T09:40:36.428Z,48.94
2022-09-03T09:41:36.407Z,48.84
2022-09-03T09:42:36.384Z,48.64
2022-09-03T09:43:36.378Z,48.61
2022-09-03T09:44:36.371Z,48.42
2022-09-03T09:45:36.377Z,47.39
2022-09-03T09:46:36.392Z,47.30
2022-09-03T09:47:36.361Z,46.89
2022-09-03T09:48:36.329Z,46.69
2022-09-03T09:49:36.311Z,46.69
2022-09-03T09:50:37.270Z,46.99
2022-09-03T09:51:36.300Z,46.67
2022-09-03T09:52:36.304Z,46.50
2022-09-03T09:53:36.272Z,46.69
2022-09-03T09:54:36.250Z,46.39
2022-09-03T09:55:36.285Z,46.80
2022-09-03T09:56:36.232Z,46.50
2022-09-03T09:57:36.212Z,46.50
2022-09-03T09:58:36.216Z,46.69
2022-09-03T09:59:36.211Z,47.30
2022-09-03T10:00:36.198Z,47.07
2022-09-03T10:01:36.217Z,46.57
2022-09-03T10:02:36.205Z,46.17
2022-09-03T10:03:36.150Z,46.47
2022-09-03T10:04:36.147Z,46.47
2022-09-03T10:05:36.155Z,45.97
2022-09-03T10:06:36.151Z,46.27
2022-09-03T10:07:36.277Z,46.07
2022-09-03T10:08:36.105Z,46.17
2022-09-03T10:09:36.111Z,46.05
2022-09-03T10:10:36.076Z,45.65
2022-09-03T10:11:37.035Z,45.65
2022-09-03T10:12:36.054Z,45.75
2022-09-03T10:13:36.050Z,45.75
2022-09-03T10:14:36.026Z,45.75
2022-09-03T10:15:36.042Z,45.37
2022-09-03T10:16:36.012Z,45.27
2022-09-03T10:17:37.975Z,45.55
2022-09-03T10:18:36.328Z,45.65
2022-09-03T10:19:36.408Z,45.45
2022-09-03T10:20:37.913Z,45.25
2022-09-03T10:21:36.240Z,45.85
2022-09-03T10:22:36.316Z,45.65
2022-09-03T10:23:36.749Z,45.35
2022-09-03T10:24:37.887Z,45.65
2022-09-03T10:25:35.900Z,45.55
2022-09-03T10:26:35.974Z,46.05
2022-09-03T10:27:35.899Z,46.05
2022-09-03T10:28:37.821Z,45.35
2022-09-03T10:29:37.823Z,45.15
2022-09-03T10:30:37.964Z,45.25
2022-09-03T10:31:35.989Z,45.75
2022-09-03T10:32:39.100Z,45.75
2022-09-03T10:33:35.813Z,45.65
2022-09-03T10:34:35.806Z,45.65
2022-09-03T10:35:36.756Z,45.93
2022-09-03T10:36:35.788Z,45.23
2022-09-03T10:37:35.755Z,45.03
2022-09-03T10:38:35.773Z,45.23
2022-09-03T10:39:42.634Z,44.83
2022-09-03T10:40:36.747Z,45.43
2022-09-03T10:41:35.739Z,45.03
2022-09-03T10:42:35.749Z,44.63
2022-09-03T10:43:35.697Z,44.53
2022-09-03T10:44:35.723Z,44.53
2022-09-03T10:45:38.116Z,44.63
2022-09-03T10:46:35.742Z,44.93
2022-09-03T10:47:35.687Z,44.63
2022-09-03T10:48:35.647Z,44.23
2022-09-03T10:49:35.650Z,44.53
2022-09-03T10:50:35.634Z,44.83
2022-09-03T10:51:35.622Z,45.23
2022-09-03T10:52:37.603Z,44.91
2022-09-03T10:53:37.546Z,44.61
2022-09-03T10:54:37.581Z,44.51
2022-09-03T10:55:37.556Z,43.81
2022-09-03T10:56:37.516Z,44.21
2022-09-03T10:57:37.508Z,44.51
2022-09-03T10:58:37.488Z,44.41
2022-09-03T10:59:37.501Z,43.69
2022-09-03T11:00:36.316Z,43.39
2022-09-03T11:01:37.516Z,43.07
2022-09-03T11:02:37.542Z,42.97
2022-09-03T11:03:37.447Z,42.67
2022-09-03T11:04:37.801Z,42.65
2022-09-03T11:05:37.428Z,42.45
2022-09-03T11:06:35.460Z,42.15
2022-09-03T11:07:35.429Z,42.37
2022-09-03T11:08:35.422Z,42.87
2022-09-03T11:09:35.410Z,43.07
2022-09-03T11:10:35.412Z,43.05
2022-09-03T11:11:35.396Z,42.87
2022-09-03T11:12:35.390Z,43.27
2022-09-03T11:13:35.361Z,43.15
2022-09-03T11:14:35.357Z,42.65
2022-09-03T11:15:35.429Z,42.15
2022-09-03T11:16:35.356Z,42.25
2022-09-03T11:17:35.859Z,42.25
2022-09-03T11:18:35.323Z,42.43
2022-09-03T11:19:35.304Z,42.63
2022-09-03T11:20:35.763Z,42.43
2022-09-03T11:21:35.270Z,42.33
2022-09-03T11:22:35.262Z,42.83
2022-09-03T11:23:35.255Z,42.23
2022-09-03T11:24:35.253Z,42.83
2022-09-03T11:25:35.216Z,42.93
2022-09-03T11:26:35.222Z,42.85
2022-09-03T11:27:35.208Z,42.65
2022-09-03T11:28:35.199Z,42.45
2022-09-03T11:29:35.215Z,42.45
2022-09-03T11:30:35.258Z,42.43
2022-09-03T11:31:35.162Z,42.05
2022-09-03T11:32:35.159Z,41.96
2022-09-03T11:33:35.142Z,42.05
2022-09-03T11:34:35.140Z,42.03
2022-09-03T11:35:35.105Z,42.13
2022-09-03T11:36:35.093Z,41.66
2022-09-03T11:37:35.101Z,42.05
2022-09-03T11:38:35.074Z,42.45
2022-09-03T11:39:35.152Z,42.33
2022-09-03T11:40:35.051Z,42.03
2022-09-03T11:41:35.050Z,42.03
2022-09-03T11:42:35.036Z,41.33
2022-09-03T11:43:35.055Z,41.63
2022-09-03T11:44:35.006Z,41.83
2022-09-03T11:45:35.019Z,41.93
2022-09-03T11:46:35.054Z,42.03
2022-09-03T11:47:34.988Z,41.71
2022-09-03T11:48:34.977Z,41.24
2022-09-03T11:49:34.955Z,41.74
2022-09-03T11:51:34.920Z,41.91
2022-09-03T11:52:34.910Z,41.91
2022-09-03T11:53:34.920Z,41.61
2022-09-03T11:54:34.901Z,41.52
2022-09-03T11:55:43.305Z,40.82
2022-09-03T11:56:35.871Z,40.42
2022-09-03T11:57:34.860Z,41.52
2022-09-03T11:58:34.885Z,41.52
2022-09-03T11:59:34.837Z,41.71
2022-09-03T12:00:34.827Z,41.42
2022-09-03T12:01:34.811Z,41.61
2022-09-03T12:02:34.892Z,41.31
2022-09-03T12:03:34.817Z,41.61
2022-09-03T12:04:34.802Z,41.82
2022-09-03T12:05:34.766Z,41.52
2022-09-03T12:06:34.758Z,41.22
2022-09-03T12:07:34.793Z,41.42
2022-09-03T12:08:34.760Z,41.52
2022-09-03T12:09:34.760Z,41.20
2022-09-03T12:10:34.717Z,41.69
2022-09-03T12:11:34.696Z,41.79
2022-09-03T12:12:34.709Z,41.42
2022-09-03T12:13:34.678Z,41.61
2022-09-03T12:14:34.690Z,41.31
2022-09-03T12:15:34.748Z,41.31
2022-09-03T12:16:34.633Z,40.72
2022-09-03T12:17:34.629Z,40.72
2022-09-03T12:18:34.624Z,40.60
2022-09-03T12:19:34.620Z,40.90
2022-09-03T12:20:34.746Z,40.30
2022-09-03T12:21:34.605Z,40.50
2022-09-03T12:22:34.579Z,40.80
2022-09-03T12:23:34.566Z,41.20
2022-09-03T12:24:37.790Z,40.80
2022-09-03T12:25:34.574Z,41.30
2022-09-03T12:26:34.520Z,40.20
2022-09-03T12:27:34.536Z,40.78
2022-09-03T12:28:34.496Z,40.28
2022-09-03T12:29:34.511Z,40.08
2022-09-03T12:30:34.506Z,40.08
2022-09-03T12:31:34.488Z,39.78
2022-09-03T12:32:34.637Z,40.08
2022-09-03T12:33:35.406Z,40.38
2022-09-03T12:34:34.452Z,39.50
2022-09-03T12:36:36.885Z,40.42
2022-09-03T12:38:54.732Z,40.62
2022-09-03T12:40:35.645Z,41.14
2022-09-03T12:41:35.410Z,40.74
2022-09-03T12:42:34.353Z,40.74
2022-09-03T12:43:38.352Z,40.64
2022-09-03T12:44:34.325Z,40.34
2022-09-03T12:46:35.358Z,40.54
2022-09-03T12:47:36.402Z,40.14
2022-09-03T12:48:34.282Z,40.64
2022-09-03T12:49:36.250Z,40.84
2022-09-03T12:50:34.272Z,40.64
2022-09-03T12:51:53.656Z,41.14
2022-09-03T12:52:35.246Z,41.63
2022-09-03T12:53:34.335Z,41.33
2022-09-03T12:54:34.233Z,41.14
2022-09-03T12:55:34.209Z,41.33
2022-09-03T12:56:34.198Z,41.63
2022-09-03T12:57:34.204Z,41.44